SAS1042 ESSA-ESNQ
Flight info
| Callsign | SAS1042 |
|---|---|
| Flight time | 1h 20m |
| Altitude | 37000 |
| Route | RESNA DCT OSK/N0443F360 DCT OSKIR DCT VAGAS |
| Aircraft | A320/M-SDE3FGHIJ1RWXYZ/ALB1 |
Departure
| Time | 2026-05-06 19:02 |
|---|---|
| Airport | Stockholm-Arlanda Airport (ESSA) |
Arrival
| Time | 2026-05-06 20:23 |
|---|---|
| Airport | Kiruna Airport (ESNQ) |
| Time | Latitude | Longitude | Altitude | Speed | Heading |
|---|---|---|---|---|---|
| 2026-05-06 18:29 | 59.65366 | 17.92952 | 111 ft | 0 kts | 139° |
| 2026-05-06 18:52 | 59.65373 | 17.92940 | 112 ft | 4 kts | 135° |
| 2026-05-06 18:53 | 59.65389 | 17.92898 | 110 ft | 4 kts | 110° |
| 2026-05-06 18:53 | 59.65392 | 17.92849 | 111 ft | 2 kts | 71° |
| 2026-05-06 18:53 | 59.65392 | 17.92846 | 111 ft | 0 kts | 70° |
| 2026-05-06 18:57 | 59.65402 | 17.92903 | 111 ft | 9 kts | 70° |
| 2026-05-06 18:57 | 59.65456 | 17.92938 | 112 ft | 9 kts | 324° |
| 2026-05-06 18:58 | 59.65452 | 17.92799 | 111 ft | 12 kts | 239° |
| 2026-05-06 18:58 | 59.65445 | 17.92621 | 109 ft | 16 kts | 307° |
| 2026-05-06 18:58 | 59.65569 | 17.92508 | 104 ft | 22 kts | 345° |
| 2026-05-06 18:58 | 59.65694 | 17.92448 | 104 ft | 16 kts | 346° |
| 2026-05-06 18:59 | 59.65808 | 17.92434 | 105 ft | 17 kts | 7° |
| 2026-05-06 18:59 | 59.65924 | 17.92479 | 108 ft | 17 kts | 11° |
| 2026-05-06 18:59 | 59.66047 | 17.92525 | 110 ft | 18 kts | 10° |
| 2026-05-06 18:59 | 59.66174 | 17.92570 | 113 ft | 19 kts | 10° |
| 2026-05-06 19:00 | 59.66303 | 17.92617 | 117 ft | 19 kts | 11° |
| 2026-05-06 19:00 | 59.66429 | 17.92657 | 118 ft | 18 kts | 6° |
| 2026-05-06 19:00 | 59.66536 | 17.92606 | 123 ft | 10 kts | 335° |
| 2026-05-06 19:00 | 59.66600 | 17.92545 | 125 ft | 11 kts | 324° |
| 2026-05-06 19:01 | 59.66612 | 17.92403 | 124 ft | 12 kts | 242° |
| 2026-05-06 19:01 | 59.66549 | 17.92344 | 123 ft | 11 kts | 191° |
| 2026-05-06 19:01 | 59.66309 | 17.92261 | 119 ft | 67 kts | 190° |
| 2026-05-06 19:01 | 59.65657 | 17.92029 | 108 ft | 120 kts | 191° |
| 2026-05-06 19:02 | 59.64645 | 17.91673 | 163 ft | 158 kts | 188° |
| 2026-05-06 19:02 | 59.63600 | 17.91273 | 694 ft | 158 kts | 189° |
| 2026-05-06 19:02 | 59.62461 | 17.90780 | 1327 ft | 162 kts | 192° |
| 2026-05-06 19:02 | 59.61667 | 17.90395 | 1541 ft | 176 kts | 197° |
| 2026-05-06 19:03 | 59.60924 | 17.89548 | 1688 ft | 194 kts | 225° |
| 2026-05-06 19:03 | 59.59058 | 17.83367 | 3185 ft | 219 kts | 239° |
| 2026-05-06 19:03 | 59.58378 | 17.80890 | 3835 ft | 226 kts | 242° |
| 2026-05-06 19:04 | 59.57618 | 17.77910 | 4260 ft | 249 kts | 243° |
| 2026-05-06 19:04 | 59.56852 | 17.74401 | 5014 ft | 261 kts | 256° |
| 2026-05-06 19:04 | 59.56725 | 17.70737 | 5875 ft | 264 kts | 273° |
| 2026-05-06 19:04 | 59.56800 | 17.67491 | 6707 ft | 263 kts | 273° |
| 2026-05-06 19:05 | 59.57226 | 17.63919 | 7570 ft | 266 kts | 298° |
| 2026-05-06 19:05 | 59.58431 | 17.61225 | 8364 ft | 271 kts | 324° |
| 2026-05-06 19:05 | 59.60338 | 17.59793 | 9248 ft | 280 kts | 352° |
| 2026-05-06 19:05 | 59.62317 | 17.60236 | 10043 ft | 289 kts | 12° |
| 2026-05-06 19:06 | 59.64295 | 17.61335 | 10426 ft | 307 kts | 12° |
| 2026-05-06 19:06 | 59.66342 | 17.62484 | 10619 ft | 327 kts | 13° |
| 2026-05-06 19:06 | 59.68652 | 17.63796 | 11149 ft | 336 kts | 13° |
| 2026-05-06 19:06 | 59.70861 | 17.65059 | 11764 ft | 341 kts | 13° |
| 2026-05-06 19:07 | 59.73163 | 17.66376 | 12392 ft | 346 kts | 13° |
| 2026-05-06 19:07 | 59.75492 | 17.67702 | 13017 ft | 351 kts | 13° |
| 2026-05-06 19:07 | 59.77827 | 17.69029 | 13661 ft | 356 kts | 13° |
| 2026-05-06 19:07 | 59.80261 | 17.70409 | 14242 ft | 361 kts | 13° |
| 2026-05-06 19:08 | 59.82686 | 17.71780 | 14820 ft | 364 kts | 12° |
| 2026-05-06 19:08 | 59.85138 | 17.73156 | 15416 ft | 368 kts | 12° |
| 2026-05-06 19:08 | 59.87614 | 17.74541 | 15967 ft | 372 kts | 12° |
| 2026-05-06 19:08 | 59.90082 | 17.75923 | 16530 ft | 375 kts | 11° |
| 2026-05-06 19:09 | 59.92690 | 17.77383 | 17126 ft | 379 kts | 11° |
| 2026-05-06 19:09 | 59.95218 | 17.78801 | 17695 ft | 382 kts | 11° |
| 2026-05-06 19:09 | 59.97788 | 17.80245 | 18279 ft | 385 kts | 11° |
| 2026-05-06 19:09 | 60.00383 | 17.81699 | 18755 ft | 389 kts | 11° |
| 2026-05-06 19:10 | 60.03003 | 17.83169 | 19256 ft | 393 kts | 11° |
| 2026-05-06 19:10 | 60.05648 | 17.84660 | 19756 ft | 397 kts | 11° |
| 2026-05-06 19:10 | 60.08321 | 17.86174 | 20255 ft | 401 kts | 10° |
| 2026-05-06 19:10 | 60.11019 | 17.87712 | 20743 ft | 405 kts | 10° |
| 2026-05-06 19:11 | 60.13778 | 17.89296 | 21247 ft | 410 kts | 9° |
| 2026-05-06 19:11 | 60.16516 | 17.90867 | 21666 ft | 415 kts | 9° |
| 2026-05-06 19:11 | 60.19332 | 17.92482 | 22128 ft | 419 kts | 9° |
| 2026-05-06 19:11 | 60.22154 | 17.94092 | 22599 ft | 423 kts | 9° |
| 2026-05-06 19:12 | 60.24997 | 17.95709 | 23062 ft | 427 kts | 9° |
| 2026-05-06 19:12 | 60.27875 | 17.97355 | 23515 ft | 431 kts | 9° |
| 2026-05-06 19:12 | 60.30771 | 17.99023 | 23895 ft | 435 kts | 9° |
| 2026-05-06 19:12 | 60.33698 | 18.00716 | 24264 ft | 439 kts | 9° |
| 2026-05-06 19:13 | 60.36642 | 18.02334 | 24629 ft | 439 kts | 5° |
| 2026-05-06 19:13 | 60.39774 | 18.03372 | 24987 ft | 438 kts | 0° |
| 2026-05-06 19:13 | 60.42790 | 18.04241 | 25341 ft | 441 kts | 0° |
| 2026-05-06 19:13 | 60.45842 | 18.05120 | 25689 ft | 445 kts | 0° |
| 2026-05-06 19:14 | 60.48916 | 18.06005 | 26045 ft | 448 kts | 0° |
| 2026-05-06 19:14 | 60.51979 | 18.06886 | 26376 ft | 451 kts | 0° |
| 2026-05-06 19:14 | 60.55129 | 18.07800 | 26721 ft | 454 kts | 0° |
| 2026-05-06 19:14 | 60.58269 | 18.08717 | 27047 ft | 457 kts | 0° |
| 2026-05-06 19:15 | 60.61428 | 18.09647 | 27370 ft | 460 kts | 0° |
| 2026-05-06 19:15 | 60.63529 | 18.10269 | 27583 ft | 462 kts | 0° |
| 2026-05-06 19:15 | 60.66769 | 18.11228 | 27910 ft | 465 kts | 360° |
| 2026-05-06 19:15 | 60.71028 | 18.12473 | 28368 ft | 470 kts | 359° |
| 2026-05-06 19:16 | 60.73221 | 18.13110 | 28561 ft | 472 kts | 359° |
| 2026-05-06 19:16 | 60.76440 | 18.14053 | 28859 ft | 475 kts | 359° |
| 2026-05-06 19:16 | 60.79764 | 18.15037 | 29173 ft | 478 kts | 359° |
| 2026-05-06 19:16 | 60.83070 | 18.16022 | 29491 ft | 481 kts | 359° |
| 2026-05-06 19:17 | 60.86392 | 18.17016 | 29796 ft | 484 kts | 359° |
| 2026-05-06 19:17 | 60.89732 | 18.18016 | 30092 ft | 487 kts | 359° |
| 2026-05-06 19:17 | 60.93093 | 18.19022 | 30360 ft | 489 kts | 359° |
| 2026-05-06 19:17 | 60.96450 | 18.20030 | 30761 ft | 488 kts | 359° |
| 2026-05-06 19:18 | 60.99809 | 18.21043 | 31264 ft | 486 kts | 360° |
| 2026-05-06 19:18 | 61.03827 | 18.22254 | 31757 ft | 484 kts | 0° |
| 2026-05-06 19:18 | 61.06472 | 18.23057 | 31892 ft | 479 kts | 360° |
| 2026-05-06 19:18 | 61.09753 | 18.24055 | 32010 ft | 474 kts | 360° |
| 2026-05-06 19:19 | 61.12999 | 18.25044 | 32142 ft | 469 kts | 360° |
| 2026-05-06 19:19 | 61.16210 | 18.26021 | 32273 ft | 464 kts | 360° |
| 2026-05-06 19:19 | 61.19396 | 18.26988 | 32393 ft | 460 kts | 359° |
| 2026-05-06 19:19 | 61.22547 | 18.27942 | 32534 ft | 455 kts | 359° |
| 2026-05-06 19:20 | 61.25659 | 18.28886 | 32662 ft | 451 kts | 359° |
| 2026-05-06 19:20 | 61.28753 | 18.29830 | 32795 ft | 446 kts | 359° |
| 2026-05-06 19:20 | 61.31808 | 18.30765 | 32969 ft | 441 kts | 359° |
| 2026-05-06 19:20 | 61.34828 | 18.31689 | 33102 ft | 436 kts | 359° |
| 2026-05-06 19:21 | 61.37813 | 18.32607 | 33235 ft | 432 kts | 359° |
| 2026-05-06 19:21 | 61.40809 | 18.33529 | 33373 ft | 427 kts | 359° |
| 2026-05-06 19:21 | 61.43731 | 18.34431 | 33518 ft | 422 kts | 359° |
| 2026-05-06 19:21 | 61.46586 | 18.35318 | 33645 ft | 418 kts | 359° |
| 2026-05-06 19:22 | 61.49480 | 18.36219 | 33789 ft | 413 kts | 359° |
| 2026-05-06 19:22 | 61.52307 | 18.37098 | 33919 ft | 408 kts | 359° |
| 2026-05-06 19:22 | 61.55055 | 18.37954 | 34033 ft | 402 kts | 359° |
| 2026-05-06 19:22 | 61.57839 | 18.38823 | 34157 ft | 396 kts | 359° |
| 2026-05-06 19:23 | 61.60508 | 18.39662 | 34318 ft | 390 kts | 359° |
| 2026-05-06 19:23 | 61.63168 | 18.40504 | 34432 ft | 384 kts | 360° |
| 2026-05-06 19:23 | 61.65805 | 18.41638 | 34762 ft | 381 kts | 9° |
| 2026-05-06 19:23 | 61.68272 | 18.43769 | 34948 ft | 391 kts | 27° |
| 2026-05-06 19:24 | 61.70405 | 18.47574 | 34427 ft | 420 kts | 54° |
| 2026-05-06 19:24 | 61.72117 | 18.52915 | 33905 ft | 440 kts | 51° |
| 2026-05-06 19:24 | 61.74129 | 18.57849 | 33750 ft | 451 kts | 41° |
| 2026-05-06 19:24 | 61.76637 | 18.61775 | 33676 ft | 446 kts | 17° |
| 2026-05-06 19:25 | 61.79541 | 18.63485 | 33817 ft | 425 kts | 353° |
| 2026-05-06 19:25 | 61.82411 | 18.63002 | 33961 ft | 410 kts | 339° |
| 2026-05-06 19:25 | 61.85233 | 18.61958 | 34071 ft | 414 kts | 340° |
| 2026-05-06 19:25 | 61.88087 | 18.60888 | 34223 ft | 419 kts | 340° |
| 2026-05-06 19:26 | 61.90968 | 18.59794 | 34338 ft | 423 kts | 340° |
| 2026-05-06 19:26 | 61.93878 | 18.58677 | 34449 ft | 427 kts | 340° |
| 2026-05-06 19:26 | 61.96810 | 18.57541 | 34569 ft | 431 kts | 340° |
| 2026-05-06 19:26 | 61.99772 | 18.56381 | 34686 ft | 435 kts | 340° |
| 2026-05-06 19:27 | 62.02761 | 18.55201 | 34804 ft | 439 kts | 340° |
| 2026-05-06 19:27 | 62.05822 | 18.54343 | 34916 ft | 453 kts | 352° |
| 2026-05-06 19:27 | 62.09013 | 18.54963 | 35039 ft | 467 kts | 1° |
| 2026-05-06 19:27 | 62.12239 | 18.55994 | 35158 ft | 471 kts | 1° |
| 2026-05-06 19:28 | 62.15497 | 18.57052 | 35276 ft | 475 kts | 2° |
| 2026-05-06 19:28 | 62.18769 | 18.58123 | 35437 ft | 477 kts | 2° |
| 2026-05-06 19:28 | 62.22049 | 18.59201 | 35730 ft | 477 kts | 2° |
| 2026-05-06 19:28 | 62.25321 | 18.60277 | 36030 ft | 475 kts | 2° |
| 2026-05-06 19:29 | 62.28580 | 18.61347 | 36332 ft | 474 kts | 2° |
| 2026-05-06 19:29 | 62.31833 | 18.62416 | 36627 ft | 472 kts | 2° |
| 2026-05-06 19:29 | 62.35082 | 18.63485 | 36896 ft | 471 kts | 2° |
| 2026-05-06 19:30 | 62.41573 | 18.65607 | 36987 ft | 473 kts | 2° |
| 2026-05-06 19:30 | 62.48083 | 18.67746 | 36988 ft | 473 kts | 2° |
| 2026-05-06 19:31 | 62.54580 | 18.69909 | 36981 ft | 472 kts | 3° |
| 2026-05-06 19:31 | 62.64325 | 18.73169 | 36983 ft | 472 kts | 3° |
| 2026-05-06 19:32 | 62.70828 | 18.75345 | 36987 ft | 473 kts | 3° |
| 2026-05-06 19:32 | 62.77375 | 18.77540 | 36988 ft | 473 kts | 3° |
| 2026-05-06 19:33 | 62.83884 | 18.79727 | 36996 ft | 473 kts | 3° |
| 2026-05-06 19:33 | 62.90378 | 18.81938 | 36987 ft | 473 kts | 3° |
| 2026-05-06 19:34 | 62.96878 | 18.84158 | 36990 ft | 473 kts | 3° |
| 2026-05-06 19:34 | 63.03382 | 18.86389 | 36984 ft | 473 kts | 3° |
| 2026-05-06 19:35 | 63.09926 | 18.88630 | 36982 ft | 473 kts | 3° |
| 2026-05-06 19:35 | 63.16430 | 18.90876 | 36997 ft | 473 kts | 4° |
| 2026-05-06 19:36 | 63.22906 | 18.93147 | 36991 ft | 473 kts | 4° |
| 2026-05-06 19:36 | 63.29406 | 18.95415 | 36970 ft | 472 kts | 4° |
| 2026-05-06 19:37 | 63.35935 | 18.97708 | 36964 ft | 472 kts | 4° |
| 2026-05-06 19:37 | 63.41313 | 18.99589 | 36964 ft | 472 kts | 3° |
| 2026-05-06 19:38 | 63.48910 | 19.01683 | 36961 ft | 469 kts | 0° |
| 2026-05-06 19:38 | 63.55408 | 19.03160 | 36967 ft | 470 kts | 0° |
| 2026-05-06 19:39 | 63.61911 | 19.04728 | 36971 ft | 470 kts | 1° |
| 2026-05-06 19:39 | 63.68450 | 19.06424 | 36977 ft | 470 kts | 1° |
| 2026-05-06 19:40 | 63.74956 | 19.08139 | 37006 ft | 470 kts | 1° |
| 2026-05-06 19:40 | 63.81447 | 19.09833 | 36998 ft | 469 kts | 1° |
| 2026-05-06 19:41 | 63.87939 | 19.11511 | 36991 ft | 469 kts | 1° |
| 2026-05-06 19:41 | 63.94412 | 19.13198 | 36989 ft | 469 kts | 1° |
| 2026-05-06 19:42 | 64.00941 | 19.14931 | 37011 ft | 469 kts | 1° |
| 2026-05-06 19:42 | 64.06305 | 19.16350 | 36974 ft | 468 kts | 2° |
| 2026-05-06 19:43 | 64.12750 | 19.18068 | 36962 ft | 466 kts | 2° |
| 2026-05-06 19:43 | 64.19196 | 19.19800 | 36966 ft | 466 kts | 2° |
| 2026-05-06 19:44 | 64.25646 | 19.21520 | 36967 ft | 467 kts | 2° |
| 2026-05-06 19:44 | 64.32102 | 19.23233 | 36971 ft | 467 kts | 2° |
| 2026-05-06 19:45 | 64.38560 | 19.24975 | 36993 ft | 467 kts | 2° |
| 2026-05-06 19:45 | 64.45011 | 19.26730 | 36983 ft | 466 kts | 2° |
| 2026-05-06 19:46 | 64.51453 | 19.28499 | 36975 ft | 466 kts | 2° |
| 2026-05-06 19:46 | 64.57935 | 19.30284 | 36974 ft | 466 kts | 2° |
| 2026-05-06 19:47 | 64.64340 | 19.32040 | 36964 ft | 466 kts | 2° |
| 2026-05-06 19:47 | 64.70768 | 19.33809 | 36973 ft | 466 kts | 3° |
| 2026-05-06 19:48 | 64.77213 | 19.35597 | 36962 ft | 465 kts | 3° |
| 2026-05-06 19:48 | 64.83636 | 19.37405 | 36965 ft | 465 kts | 3° |
| 2026-05-06 19:49 | 64.90059 | 19.39231 | 36961 ft | 465 kts | 3° |
| 2026-05-06 19:49 | 64.96473 | 19.41034 | 36963 ft | 464 kts | 3° |
| 2026-05-06 19:50 | 65.02890 | 19.42837 | 36967 ft | 464 kts | 3° |
| 2026-05-06 19:50 | 65.09303 | 19.44660 | 36965 ft | 464 kts | 3° |
| 2026-05-06 19:51 | 65.15714 | 19.46515 | 36959 ft | 464 kts | 3° |
| 2026-05-06 19:51 | 65.22165 | 19.48365 | 36954 ft | 464 kts | 3° |
| 2026-05-06 19:52 | 65.28572 | 19.50205 | 36947 ft | 464 kts | 3° |
| 2026-05-06 19:52 | 65.34977 | 19.52074 | 36965 ft | 464 kts | 4° |
| 2026-05-06 19:53 | 65.41369 | 19.53945 | 36933 ft | 462 kts | 4° |
| 2026-05-06 19:53 | 65.47757 | 19.55823 | 36924 ft | 462 kts | 4° |
| 2026-05-06 19:54 | 65.54142 | 19.57713 | 36914 ft | 462 kts | 4° |
| 2026-05-06 19:54 | 65.60523 | 19.59607 | 36912 ft | 462 kts | 4° |
| 2026-05-06 19:55 | 65.66912 | 19.61495 | 36928 ft | 462 kts | 4° |
| 2026-05-06 19:55 | 65.73292 | 19.63394 | 36940 ft | 462 kts | 4° |
| 2026-05-06 19:56 | 65.79668 | 19.65338 | 36931 ft | 462 kts | 4° |
| 2026-05-06 19:56 | 65.86045 | 19.67275 | 36940 ft | 462 kts | 4° |
| 2026-05-06 19:57 | 65.92430 | 19.69207 | 36941 ft | 462 kts | 4° |
| 2026-05-06 19:57 | 65.98806 | 19.71136 | 36735 ft | 461 kts | 5° |
| 2026-05-06 19:58 | 66.01989 | 19.72116 | 36490 ft | 460 kts | 5° |
| 2026-05-06 19:58 | 66.05161 | 19.73097 | 36246 ft | 460 kts | 5° |
| 2026-05-06 19:58 | 66.08332 | 19.74081 | 35999 ft | 459 kts | 5° |
| 2026-05-06 19:58 | 66.11493 | 19.75063 | 35755 ft | 457 kts | 5° |
| 2026-05-06 19:59 | 66.14638 | 19.76044 | 35370 ft | 453 kts | 5° |
| 2026-05-06 19:59 | 66.17762 | 19.77012 | 34896 ft | 452 kts | 4° |
| 2026-05-06 19:59 | 66.20876 | 19.77969 | 34405 ft | 451 kts | 4° |
| 2026-05-06 19:59 | 66.23983 | 19.78928 | 33914 ft | 450 kts | 4° |
| 2026-05-06 20:00 | 66.27075 | 19.79890 | 33363 ft | 448 kts | 5° |
| 2026-05-06 20:00 | 66.30159 | 19.80859 | 32890 ft | 444 kts | 5° |
| 2026-05-06 20:00 | 66.33210 | 19.81826 | 32394 ft | 441 kts | 5° |
| 2026-05-06 20:00 | 66.36236 | 19.82790 | 31908 ft | 437 kts | 5° |
| 2026-05-06 20:01 | 66.39246 | 19.83745 | 31433 ft | 434 kts | 5° |
| 2026-05-06 20:01 | 66.42230 | 19.84684 | 30952 ft | 430 kts | 5° |
| 2026-05-06 20:01 | 66.45193 | 19.85621 | 30499 ft | 427 kts | 5° |
| 2026-05-06 20:01 | 66.48127 | 19.86555 | 30047 ft | 423 kts | 5° |
| 2026-05-06 20:02 | 66.51036 | 19.87486 | 29540 ft | 419 kts | 5° |
| 2026-05-06 20:02 | 66.53866 | 19.88395 | 29125 ft | 413 kts | 5° |
| 2026-05-06 20:02 | 66.56733 | 19.89319 | 28696 ft | 407 kts | 5° |
| 2026-05-06 20:02 | 66.59527 | 19.90221 | 28291 ft | 402 kts | 6° |
| 2026-05-06 20:03 | 66.62291 | 19.91116 | 27892 ft | 398 kts | 6° |
| 2026-05-06 20:03 | 66.65015 | 19.92001 | 27486 ft | 394 kts | 6° |
| 2026-05-06 20:03 | 66.67725 | 19.92876 | 27071 ft | 390 kts | 5° |
| 2026-05-06 20:03 | 66.70404 | 19.93737 | 26685 ft | 387 kts | 5° |
| 2026-05-06 20:04 | 66.73074 | 19.94593 | 26281 ft | 385 kts | 5° |
| 2026-05-06 20:04 | 66.75727 | 19.95447 | 25877 ft | 383 kts | 6° |
| 2026-05-06 20:04 | 66.78362 | 19.96301 | 25455 ft | 382 kts | 6° |
| 2026-05-06 20:04 | 66.80990 | 19.97160 | 25039 ft | 380 kts | 6° |
| 2026-05-06 20:05 | 66.83615 | 19.98029 | 24614 ft | 379 kts | 6° |
| 2026-05-06 20:05 | 66.86225 | 19.98897 | 24205 ft | 378 kts | 6° |
| 2026-05-06 20:05 | 66.88813 | 19.99753 | 23797 ft | 376 kts | 6° |
| 2026-05-06 20:05 | 66.91386 | 20.00604 | 23525 ft | 370 kts | 6° |
| 2026-05-06 20:06 | 66.93917 | 20.01440 | 22890 ft | 365 kts | 6° |
| 2026-05-06 20:06 | 66.96425 | 20.02265 | 22421 ft | 349 kts | 6° |
| 2026-05-06 20:06 | 66.98777 | 20.03046 | 22025 ft | 336 kts | 6° |
| 2026-05-06 20:06 | 67.01084 | 20.03814 | 21635 ft | 333 kts | 6° |
| 2026-05-06 20:07 | 67.03376 | 20.04579 | 21240 ft | 330 kts | 6° |
| 2026-05-06 20:07 | 67.05642 | 20.05336 | 20852 ft | 328 kts | 6° |
| 2026-05-06 20:07 | 67.07908 | 20.06098 | 20468 ft | 326 kts | 6° |
| 2026-05-06 20:07 | 67.10154 | 20.06853 | 20085 ft | 325 kts | 6° |
| 2026-05-06 20:08 | 67.12379 | 20.07599 | 19701 ft | 323 kts | 6° |
| 2026-05-06 20:08 | 67.14601 | 20.08342 | 19317 ft | 321 kts | 5° |
| 2026-05-06 20:08 | 67.16826 | 20.09084 | 18931 ft | 320 kts | 5° |
| 2026-05-06 20:08 | 67.19027 | 20.09821 | 18549 ft | 319 kts | 5° |
| 2026-05-06 20:09 | 67.21219 | 20.10563 | 18168 ft | 318 kts | 5° |
| 2026-05-06 20:09 | 67.23415 | 20.11307 | 17756 ft | 317 kts | 5° |
| 2026-05-06 20:09 | 67.25563 | 20.12036 | 17382 ft | 314 kts | 5° |
| 2026-05-06 20:09 | 67.27755 | 20.12785 | 17005 ft | 312 kts | 5° |
| 2026-05-06 20:10 | 67.29901 | 20.13517 | 16629 ft | 310 kts | 5° |
| 2026-05-06 20:10 | 67.32037 | 20.14246 | 16260 ft | 308 kts | 5° |
| 2026-05-06 20:10 | 67.34152 | 20.15019 | 15893 ft | 307 kts | 9° |
| 2026-05-06 20:10 | 67.36191 | 20.16612 | 15540 ft | 307 kts | 21° |
| 2026-05-06 20:11 | 67.38150 | 20.18814 | 15187 ft | 306 kts | 21° |
| 2026-05-06 20:11 | 67.40100 | 20.21001 | 14829 ft | 304 kts | 21° |
| 2026-05-06 20:11 | 67.42038 | 20.23168 | 14475 ft | 303 kts | 21° |
| 2026-05-06 20:11 | 67.43978 | 20.25333 | 14119 ft | 302 kts | 21° |
| 2026-05-06 20:12 | 67.45908 | 20.27496 | 13761 ft | 301 kts | 21° |
| 2026-05-06 20:12 | 67.47826 | 20.29649 | 13387 ft | 300 kts | 21° |
| 2026-05-06 20:12 | 67.49739 | 20.31796 | 13032 ft | 298 kts | 21° |
| 2026-05-06 20:12 | 67.51637 | 20.33929 | 12665 ft | 296 kts | 21° |
| 2026-05-06 20:13 | 67.53517 | 20.36049 | 12312 ft | 294 kts | 21° |
| 2026-05-06 20:13 | 67.55389 | 20.38165 | 11957 ft | 292 kts | 21° |
| 2026-05-06 20:13 | 67.57250 | 20.40269 | 11596 ft | 291 kts | 21° |
| 2026-05-06 20:13 | 67.59101 | 20.42361 | 11244 ft | 289 kts | 21° |
| 2026-05-06 20:14 | 67.60945 | 20.44456 | 10903 ft | 288 kts | 22° |
| 2026-05-06 20:14 | 67.62779 | 20.46550 | 10557 ft | 287 kts | 22° |
| 2026-05-06 20:14 | 67.64606 | 20.48637 | 10203 ft | 286 kts | 22° |
| 2026-05-06 20:14 | 67.66428 | 20.50716 | 9858 ft | 285 kts | 22° |
| 2026-05-06 20:15 | 67.68246 | 20.52796 | 9487 ft | 284 kts | 22° |
| 2026-05-06 20:15 | 67.70045 | 20.54861 | 9136 ft | 282 kts | 22° |
| 2026-05-06 20:15 | 67.71839 | 20.56924 | 8791 ft | 280 kts | 22° |
| 2026-05-06 20:15 | 67.73624 | 20.58980 | 8459 ft | 279 kts | 22° |
| 2026-05-06 20:16 | 67.75398 | 20.61028 | 8131 ft | 278 kts | 22° |
| 2026-05-06 20:16 | 67.77161 | 20.63069 | 7852 ft | 276 kts | 22° |
| 2026-05-06 20:16 | 67.78922 | 20.65051 | 7508 ft | 275 kts | 18° |
| 2026-05-06 20:16 | 67.80770 | 20.66355 | 7168 ft | 273 kts | 12° |
| 2026-05-06 20:17 | 67.82611 | 20.67538 | 6831 ft | 272 kts | 13° |
| 2026-05-06 20:17 | 67.84445 | 20.68734 | 6504 ft | 272 kts | 13° |
| 2026-05-06 20:17 | 67.86277 | 20.69935 | 6164 ft | 271 kts | 13° |
| 2026-05-06 20:17 | 67.88107 | 20.71138 | 5811 ft | 270 kts | 13° |
| 2026-05-06 20:18 | 67.89927 | 20.72326 | 5464 ft | 268 kts | 11° |
| 2026-05-06 20:18 | 67.91736 | 20.72449 | 5121 ft | 255 kts | 346° |
| 2026-05-06 20:18 | 67.93290 | 20.70552 | 4774 ft | 242 kts | 320° |
| 2026-05-06 20:18 | 67.94345 | 20.67231 | 4430 ft | 233 kts | 296° |
| 2026-05-06 20:19 | 67.94810 | 20.63166 | 4172 ft | 228 kts | 274° |
| 2026-05-06 20:19 | 67.94672 | 20.59017 | 3927 ft | 227 kts | 252° |
| 2026-05-06 20:19 | 67.93976 | 20.55306 | 3743 ft | 221 kts | 231° |
| 2026-05-06 20:19 | 67.93271 | 20.53391 | 3663 ft | 208 kts | 217° |
| 2026-05-06 20:20 | 67.92145 | 20.51336 | 3583 ft | 189 kts | 213° |
| 2026-05-06 20:20 | 67.91092 | 20.49455 | 3446 ft | 172 kts | 213° |
| 2026-05-06 20:20 | 67.90148 | 20.47771 | 3223 ft | 155 kts | 213° |
| 2026-05-06 20:20 | 67.89278 | 20.46221 | 2999 ft | 144 kts | 213° |
| 2026-05-06 20:21 | 67.88469 | 20.44784 | 2807 ft | 140 kts | 213° |
| 2026-05-06 20:21 | 67.87664 | 20.43352 | 2586 ft | 139 kts | 213° |
| 2026-05-06 20:21 | 67.86848 | 20.41919 | 2347 ft | 140 kts | 213° |
| 2026-05-06 20:21 | 67.86046 | 20.40492 | 2111 ft | 141 kts | 213° |
| 2026-05-06 20:22 | 67.85232 | 20.39020 | 1901 ft | 142 kts | 214° |
| 2026-05-06 20:22 | 67.84409 | 20.37564 | 1718 ft | 143 kts | 213° |
| 2026-05-06 20:22 | 67.83571 | 20.36091 | 1543 ft | 143 kts | 212° |
| 2026-05-06 20:22 | 67.82766 | 20.34690 | 1461 ft | 132 kts | 213° |
| 2026-05-06 20:23 | 67.82117 | 20.33551 | 1472 ft | 79 kts | 214° |
| 2026-05-06 20:23 | 67.81909 | 20.33184 | 1487 ft | 1 kts | 213° |
| 2026-05-06 20:23 | 67.81882 | 20.33137 | 1477 ft | 13 kts | 213° |
| 2026-05-06 20:23 | 67.81742 | 20.32895 | 1488 ft | 34 kts | 214° |
| 2026-05-06 20:24 | 67.81547 | 20.32550 | 1503 ft | 29 kts | 213° |
| 2026-05-06 20:24 | 67.81395 | 20.32274 | 1509 ft | 26 kts | 217° |
| 2026-05-06 20:24 | 67.81301 | 20.32052 | 1513 ft | 6 kts | 147° |
| 2026-05-06 20:24 | 67.81317 | 20.32116 | 1512 ft | 8 kts | 44° |
| 2026-05-06 20:25 | 67.81409 | 20.32308 | 1508 ft | 25 kts | 34° |
| 2026-05-06 20:25 | 67.81592 | 20.32633 | 1501 ft | 35 kts | 34° |
| 2026-05-06 20:25 | 67.81803 | 20.32999 | 1476 ft | 38 kts | 33° |
| 2026-05-06 20:25 | 67.82013 | 20.33363 | 1480 ft | 36 kts | 33° |
| 2026-05-06 20:26 | 67.82206 | 20.33705 | 1467 ft | 34 kts | 33° |
| 2026-05-06 20:26 | 67.82358 | 20.33939 | 1466 ft | 12 kts | 0° |
| 2026-05-06 20:26 | 67.82423 | 20.33782 | 1463 ft | 7 kts | 300° |
| 2026-05-06 20:26 | 67.82431 | 20.33747 | 1446 ft | 1 kts | 301° |
| 2026-05-06 20:27 | 67.82437 | 20.33718 | 1466 ft | 3 kts | 302° |
| 2026-05-06 20:27 | 67.82450 | 20.33663 | 1460 ft | 4 kts | 298° |
| 2026-05-06 20:27 | 67.82459 | 20.33576 | 1458 ft | 5 kts | 279° |
| 2026-05-06 20:27 | 67.82468 | 20.33484 | 1465 ft | 3 kts | 294° |
| 2026-05-06 20:28 | 67.82479 | 20.33474 | 1460 ft | 2 kts | 354° |
| 2026-05-06 20:28 | 67.82497 | 20.33488 | 1467 ft | 2 kts | 20° |
| 2026-05-06 20:28 | 67.82504 | 20.33496 | 1465 ft | 0 kts | 22° |